createdAt,value
2023-03-19T00:00:37.475Z,11.10
2023-03-19T00:03:05.765Z,11.20
2023-03-19T00:05:35.802Z,11.20
2023-03-19T00:08:04.035Z,11.20
2023-03-19T00:10:32.313Z,11.20
2023-03-19T00:13:00.691Z,11.20
2023-03-19T00:15:28.813Z,11.10
2023-03-19T00:17:57.578Z,11.00
2023-03-19T00:20:26.202Z,10.90
2023-03-19T00:22:56.277Z,10.90
2023-03-19T00:25:24.794Z,10.80
2023-03-19T00:27:55.125Z,10.80
2023-03-19T00:30:24.204Z,10.80
2023-03-19T00:32:52.506Z,10.80
2023-03-19T00:35:20.746Z,10.80
2023-03-19T00:37:48.884Z,10.80
2023-03-19T00:40:18.653Z,10.90
2023-03-19T00:42:47.002Z,11.00
2023-03-19T00:45:15.173Z,11.00
2023-03-19T00:47:43.875Z,10.80
2023-03-19T00:50:12.834Z,10.80
2023-03-19T00:52:41.222Z,10.80
2023-03-19T00:55:10.391Z,10.80
2023-03-19T00:57:40.103Z,10.80
2023-03-19T01:00:10.857Z,10.70
2023-03-19T01:02:41.711Z,10.80
2023-03-19T01:05:11.214Z,10.80
2023-03-19T01:07:46.691Z,10.80
2023-03-19T01:12:59.769Z,10.90
2023-03-19T01:15:28.188Z,11.00
2023-03-19T01:18:06.745Z,11.10
2023-03-19T01:20:36.366Z,11.10
2023-03-19T01:23:06.836Z,11.10
2023-03-19T01:25:44.556Z,11.10
2023-03-19T01:28:19.018Z,11.00
2023-03-19T01:30:49.339Z,11.00
2023-03-19T01:33:20.867Z,11.10
2023-03-19T01:35:49.301Z,11.10
2023-03-19T01:38:20.700Z,11.10
2023-03-19T01:40:52.483Z,11.30
2023-03-19T01:43:26.145Z,11.30
2023-03-19T01:45:58.476Z,11.30
2023-03-19T01:48:36.065Z,11.30
2023-03-19T01:51:08.058Z,11.20
2023-03-19T01:53:39.421Z,11.20
2023-03-19T01:56:14.577Z,11.20
2023-03-19T01:58:55.707Z,11.20
2023-03-19T02:01:25.370Z,11.10
2023-03-19T02:03:57.417Z,11.10
2023-03-19T02:06:30.581Z,11.10
2023-03-19T02:09:01.195Z,11.30
2023-03-19T02:11:29.553Z,11.30
2023-03-19T02:14:01.885Z,11.30
2023-03-19T02:16:32.346Z,11.30
2023-03-19T02:19:01.468Z,11.30
2023-03-19T02:21:38.448Z,11.40
2023-03-19T02:24:13.785Z,11.40
2023-03-19T02:26:45.897Z,11.30
2023-03-19T02:29:15.875Z,11.40
2023-03-19T02:31:44.311Z,11.40
2023-03-19T02:34:40.213Z,11.40
2023-03-19T02:37:18.204Z,11.40
2023-03-19T02:39:53.113Z,11.50
2023-03-19T02:42:28.015Z,11.40
2023-03-19T02:44:56.521Z,11.30
2023-03-19T02:47:25.514Z,11.30
2023-03-19T02:49:57.234Z,11.20
2023-03-19T02:52:26.859Z,11.20
2023-03-19T02:54:58.496Z,11.10
2023-03-19T02:57:43.997Z,11.10
2023-03-19T03:00:14.704Z,11.10
2023-03-19T03:02:46.447Z,11.00
2023-03-19T03:05:15.234Z,11.00
2023-03-19T03:07:45.026Z,11.10
2023-03-19T03:10:28.810Z,11.10
2023-03-19T03:13:01.154Z,11.10
2023-03-19T03:15:34.080Z,11.10
2023-03-19T03:18:04.525Z,11.10
2023-03-19T03:20:36.146Z,11.10
2023-03-19T03:23:05.580Z,11.10
2023-03-19T03:25:37.155Z,11.10
2023-03-19T03:28:08.090Z,11.10
2023-03-19T03:30:38.600Z,11.10
2023-03-19T03:33:12.362Z,11.10
2023-03-19T03:35:49.791Z,10.90
2023-03-19T03:38:19.628Z,10.90
2023-03-19T03:40:55.929Z,10.80
2023-03-19T03:43:27.138Z,10.80
2023-03-19T03:45:58.984Z,10.80
2023-03-19T03:48:29.955Z,10.80
2023-03-19T03:51:08.230Z,10.80
2023-03-19T03:53:37.753Z,10.80
2023-03-19T03:56:08.504Z,10.80
2023-03-19T03:58:38.120Z,10.80
2023-03-19T04:01:07.284Z,10.80
2023-03-19T04:03:35.695Z,10.80
2023-03-19T04:06:06.310Z,10.80
2023-03-19T04:08:34.452Z,10.80
2023-03-19T04:11:07.231Z,10.80
2023-03-19T04:13:36.934Z,10.80
2023-03-19T04:16:09.694Z,10.80
2023-03-19T04:18:38.542Z,10.80
2023-03-19T04:21:09.074Z,10.80
2023-03-19T04:23:46.341Z,10.70
2023-03-19T04:26:16.201Z,10.80
2023-03-19T04:28:45.793Z,10.70
2023-03-19T04:31:31.618Z,10.60
2023-03-19T04:34:03.506Z,10.70
2023-03-19T04:36:31.681Z,10.60
2023-03-19T04:39:02.250Z,10.50
2023-03-19T04:41:30.339Z,10.60
2023-03-19T04:43:58.453Z,10.60
2023-03-19T04:46:26.590Z,10.60
2023-03-19T04:48:59.909Z,10.50
2023-03-19T04:51:28.209Z,10.50
2023-03-19T04:53:58.084Z,10.40
2023-03-19T04:56:28.806Z,10.30
2023-03-19T04:58:56.956Z,10.30
2023-03-19T05:01:25.247Z,10.30
2023-03-19T05:03:53.450Z,10.20
2023-03-19T05:06:23.409Z,10.10
2023-03-19T05:08:51.584Z,10.10
2023-03-19T05:11:19.766Z,10.10
2023-03-19T05:13:49.347Z,10.00
2023-03-19T05:16:17.576Z,10.10
2023-03-19T05:18:45.820Z,10.00
2023-03-19T05:21:16.975Z,9.90
2023-03-19T05:23:52.332Z,10.00
2023-03-19T05:26:24.735Z,10.00
2023-03-19T05:28:55.468Z,10.00
2023-03-19T05:31:24.796Z,10.00
2023-03-19T05:33:55.574Z,9.90
2023-03-19T05:36:28.226Z,9.90
2023-03-19T05:38:57.802Z,9.80
2023-03-19T05:41:26.038Z,9.80
2023-03-19T05:43:55.492Z,9.80
2023-03-19T05:46:26.490Z,9.80
2023-03-19T05:48:56.974Z,9.80
2023-03-19T05:51:26.877Z,9.70
2023-03-19T05:53:57.465Z,9.80
2023-03-19T05:56:25.869Z,9.70
2023-03-19T05:58:56.751Z,9.70
2023-03-19T06:01:27.290Z,9.70
2023-03-19T06:03:56.470Z,9.60
2023-03-19T06:06:26.804Z,9.50
2023-03-19T06:08:54.982Z,9.50
2023-03-19T06:11:27.352Z,9.50
2023-03-19T06:13:59.231Z,9.60
2023-03-19T06:16:28.943Z,9.50
2023-03-19T06:18:57.402Z,9.50
2023-03-19T06:21:29.873Z,9.50
2023-03-19T06:24:00.255Z,9.50
2023-03-19T06:26:31.252Z,9.40
2023-03-19T06:28:59.645Z,9.40
2023-03-19T06:31:29.128Z,9.50
2023-03-19T06:33:57.530Z,9.50
2023-03-19T06:36:26.160Z,9.50
2023-03-19T06:38:56.920Z,9.50
2023-03-19T06:41:26.579Z,9.50
2023-03-19T06:43:56.198Z,9.40
2023-03-19T06:46:28.341Z,9.40
2023-03-19T06:48:57.704Z,9.40
2023-03-19T06:51:28.012Z,9.30
2023-03-19T06:53:56.696Z,9.40
2023-03-19T06:56:27.629Z,9.50
2023-03-19T06:58:57.316Z,9.50
2023-03-19T07:01:27.731Z,9.60
2023-03-19T07:03:57.991Z,9.80
2023-03-19T07:06:30.146Z,9.90
2023-03-19T07:09:00.010Z,10.10
2023-03-19T07:11:28.351Z,10.20
2023-03-19T07:13:57.823Z,10.30
2023-03-19T07:16:26.196Z,10.40
2023-03-19T07:18:58.815Z,10.50
2023-03-19T07:21:27.041Z,10.70
2023-03-19T07:23:55.246Z,10.80
2023-03-19T07:26:27.737Z,10.90
2023-03-19T07:28:58.792Z,11.10
2023-03-19T07:31:27.059Z,11.10
2023-03-19T07:33:57.068Z,11.20
2023-03-19T07:36:27.566Z,11.30
2023-03-19T07:38:55.862Z,11.30
2023-03-19T07:41:24.074Z,11.40
2023-03-19T07:43:52.545Z,11.40
2023-03-19T07:46:22.622Z,11.40
2023-03-19T07:48:54.438Z,11.40
2023-03-19T07:51:23.884Z,11.50
2023-03-19T07:53:53.105Z,11.80
2023-03-19T07:56:22.836Z,11.80
2023-03-19T07:58:51.738Z,12.20
2023-03-19T08:01:32.290Z,12.50
2023-03-19T08:04:01.023Z,12.60
2023-03-19T08:06:30.839Z,12.70
2023-03-19T08:08:58.942Z,12.80
2023-03-19T08:11:36.028Z,12.80
2023-03-19T08:14:05.681Z,12.90
2023-03-19T08:16:38.473Z,13.20
2023-03-19T08:19:06.648Z,13.20
2023-03-19T08:21:35.806Z,13.10
2023-03-19T08:24:05.709Z,13.00
2023-03-19T08:26:34.992Z,13.00
2023-03-19T08:29:05.485Z,13.10
2023-03-19T08:31:35.997Z,13.20
2023-03-19T08:34:07.319Z,13.30
2023-03-19T08:36:35.493Z,13.40
2023-03-19T08:39:04.281Z,13.70
2023-03-19T08:41:34.692Z,14.20
2023-03-19T08:44:05.128Z,14.30
2023-03-19T08:46:33.846Z,14.30
2023-03-19T08:49:05.485Z,14.30
2023-03-19T08:51:34.866Z,14.30
2023-03-19T08:54:05.324Z,14.30
2023-03-19T08:56:36.113Z,14.30
2023-03-19T08:59:05.322Z,14.30
2023-03-19T09:01:34.528Z,14.30
2023-03-19T09:04:04.387Z,14.30
2023-03-19T09:06:33.897Z,14.50
2023-03-19T09:09:04.389Z,14.90
2023-03-19T09:11:32.540Z,15.10
2023-03-19T09:14:00.710Z,14.90
2023-03-19T09:16:30.326Z,14.80
2023-03-19T09:19:00.164Z,14.80
2023-03-19T09:21:49.085Z,14.90
2023-03-19T09:24:18.840Z,15.20
2023-03-19T09:26:47.416Z,15.30
2023-03-19T09:29:15.587Z,15.30
2023-03-19T09:31:46.716Z,15.30
2023-03-19T09:34:16.508Z,15.40
2023-03-19T09:36:47.130Z,15.30
2023-03-19T09:39:15.207Z,15.40
2023-03-19T09:42:03.984Z,15.50
2023-03-19T09:44:36.123Z,15.40
2023-03-19T09:47:23.558Z,15.40
2023-03-19T09:49:54.653Z,15.40
2023-03-19T09:52:45.375Z,15.60
2023-03-19T09:55:27.049Z,15.80
2023-03-19T09:57:57.629Z,15.90
2023-03-19T10:00:30.323Z,15.90
2023-03-19T10:03:09.251Z,16.00
2023-03-19T10:05:47.404Z,16.10
2023-03-19T10:08:39.410Z,16.30
2023-03-19T10:11:25.564Z,16.30
2023-03-19T10:14:03.875Z,16.50
2023-03-19T10:16:39.326Z,16.60
2023-03-19T10:19:07.840Z,16.60
2023-03-19T10:21:42.482Z,16.60
2023-03-19T10:24:16.624Z,16.40
2023-03-19T10:26:47.382Z,16.30
2023-03-19T10:29:17.678Z,16.20
2023-03-19T10:31:53.323Z,16.20
2023-03-19T10:34:32.812Z,16.20
2023-03-19T10:37:04.736Z,15.90
2023-03-19T10:39:38.890Z,15.80
2023-03-19T10:42:22.445Z,15.70
2023-03-19T10:44:58.431Z,15.60
2023-03-19T10:47:35.923Z,15.50
2023-03-19T10:50:07.593Z,15.50
2023-03-19T10:52:38.940Z,15.80
2023-03-19T10:55:17.889Z,15.80
2023-03-19T10:57:51.804Z,15.90
2023-03-19T11:00:28.333Z,15.90
2023-03-19T11:02:59.230Z,15.80
2023-03-19T11:05:32.620Z,15.80
2023-03-19T11:08:04.483Z,15.70
2023-03-19T11:10:37.700Z,15.80
2023-03-19T11:13:08.536Z,16.00
2023-03-19T11:15:40.178Z,15.80
2023-03-19T11:18:18.054Z,16.00
2023-03-19T11:20:54.634Z,16.10
2023-03-19T11:23:24.230Z,15.90
2023-03-19T11:25:56.913Z,15.80
2023-03-19T11:28:32.911Z,15.80
2023-03-19T11:31:15.661Z,15.60
2023-03-19T11:34:00.460Z,15.60
2023-03-19T11:36:34.258Z,15.40
2023-03-19T11:39:19.958Z,15.40
2023-03-19T11:42:07.671Z,15.70
2023-03-19T11:44:42.382Z,16.00
2023-03-19T11:47:26.728Z,16.10
2023-03-19T11:50:05.307Z,15.80
2023-03-19T11:52:39.324Z,15.70
2023-03-19T11:55:26.262Z,16.00
2023-03-19T11:58:25.734Z,16.20
2023-03-19T12:00:56.255Z,16.10
2023-03-19T12:03:56.105Z,16.10
2023-03-19T12:06:37.508Z,16.00
2023-03-19T12:09:16.939Z,16.00
2023-03-19T12:11:54.576Z,16.10
2023-03-19T12:14:34.649Z,16.20
2023-03-19T12:17:19.459Z,16.30
2023-03-19T12:20:25.311Z,16.60
2023-03-19T12:23:06.572Z,16.50
2023-03-19T12:26:08.095Z,16.70
2023-03-19T12:28:45.683Z,16.70
2023-03-19T12:31:43.449Z,16.80
2023-03-19T12:34:51.181Z,16.60
2023-03-19T12:37:29.785Z,16.30
2023-03-19T12:40:17.934Z,16.00
2023-03-19T12:42:56.156Z,16.10
2023-03-19T12:45:40.771Z,15.80
2023-03-19T12:48:14.057Z,15.90
2023-03-19T12:50:46.963Z,15.80
2023-03-19T12:53:27.814Z,15.80
2023-03-19T12:56:01.627Z,15.90
2023-03-19T12:58:41.133Z,16.00
2023-03-19T13:01:14.627Z,16.00
2023-03-19T13:03:54.102Z,16.00
2023-03-19T13:06:27.171Z,15.80
2023-03-19T13:09:03.194Z,15.80
2023-03-19T13:11:39.535Z,15.80
2023-03-19T13:14:15.500Z,15.90
2023-03-19T13:16:50.206Z,16.00
2023-03-19T13:19:26.552Z,15.90
2023-03-19T13:21:59.520Z,15.90
2023-03-19T13:24:30.355Z,15.80
2023-03-19T13:27:01.231Z,15.80
2023-03-19T13:29:30.816Z,15.90
2023-03-19T13:32:03.490Z,16.00
2023-03-19T13:34:36.324Z,16.00
2023-03-19T13:37:13.088Z,15.90
2023-03-19T13:39:42.193Z,16.10
2023-03-19T13:42:23.950Z,15.90
2023-03-19T13:44:55.149Z,15.90
2023-03-19T13:47:42.405Z,16.10
2023-03-19T13:50:28.869Z,16.40
2023-03-19T13:53:22.558Z,16.60
2023-03-19T13:55:54.676Z,16.40
2023-03-19T13:58:39.753Z,16.30
2023-03-19T14:01:11.770Z,16.30
2023-03-19T14:03:54.335Z,16.10
2023-03-19T14:06:41.053Z,15.90
2023-03-19T14:09:31.722Z,15.80
2023-03-19T14:12:11.713Z,15.70
2023-03-19T14:14:45.236Z,15.40
2023-03-19T14:17:16.560Z,15.50
2023-03-19T14:19:44.728Z,15.50
2023-03-19T14:22:21.965Z,15.70
2023-03-19T14:24:58.265Z,15.60
2023-03-19T14:27:33.087Z,15.30
2023-03-19T14:30:09.597Z,15.30
2023-03-19T14:32:41.122Z,15.00
2023-03-19T14:35:15.867Z,14.80
2023-03-19T14:37:50.266Z,14.60
2023-03-19T14:40:21.368Z,14.50
2023-03-19T14:42:59.907Z,14.40
2023-03-19T14:45:46.389Z,14.40
2023-03-19T14:48:25.283Z,14.50
2023-03-19T14:51:19.197Z,14.50
2023-03-19T14:53:54.415Z,14.70
2023-03-19T14:56:26.590Z,14.50
2023-03-19T14:58:56.085Z,14.40
2023-03-19T15:01:27.058Z,14.40
2023-03-19T15:03:57.452Z,14.20
2023-03-19T15:06:31.513Z,14.10
2023-03-19T15:09:02.536Z,14.00
2023-03-19T15:11:51.873Z,13.80
2023-03-19T15:14:44.126Z,13.50
2023-03-19T15:17:22.637Z,13.30
2023-03-19T15:19:51.262Z,13.20
2023-03-19T15:22:23.476Z,12.80
2023-03-19T15:24:53.069Z,12.50
2023-03-19T15:27:22.583Z,12.30
2023-03-19T15:29:51.975Z,12.40
2023-03-19T15:32:54.423Z,12.30
2023-03-19T15:35:30.542Z,12.30
2023-03-19T15:38:03.050Z,12.60
2023-03-19T15:40:40.261Z,13.10
2023-03-19T15:43:15.133Z,13.30
2023-03-19T15:45:51.729Z,13.10
2023-03-19T15:48:23.847Z,13.00
2023-03-19T15:50:56.264Z,12.90
2023-03-19T15:53:27.703Z,12.90
2023-03-19T15:55:57.407Z,12.70
2023-03-19T15:58:28.945Z,12.60
2023-03-19T16:00:58.311Z,12.40
2023-03-19T16:03:29.926Z,12.40
2023-03-19T16:06:03.603Z,12.30
2023-03-19T16:08:32.464Z,12.20
2023-03-19T16:11:31.391Z,12.20
2023-03-19T16:14:00.464Z,12.20
2023-03-19T16:16:31.458Z,12.30
2023-03-19T16:19:00.052Z,12.40
2023-03-19T16:21:36.215Z,12.40
2023-03-19T16:24:07.899Z,12.60
2023-03-19T16:26:41.308Z,12.70
2023-03-19T16:29:20.942Z,12.80
2023-03-19T16:31:52.883Z,12.90
2023-03-19T16:34:28.911Z,13.00
2023-03-19T16:36:58.284Z,12.90
2023-03-19T16:39:34.178Z,12.80
2023-03-19T16:42:31.768Z,12.70
2023-03-19T16:45:04.267Z,12.50
2023-03-19T16:47:32.587Z,12.30
2023-03-19T16:50:00.775Z,12.30
2023-03-19T16:52:28.937Z,12.10
2023-03-19T16:54:59.366Z,12.10
2023-03-19T16:57:28.320Z,12.00
2023-03-19T16:59:58.938Z,11.90
2023-03-19T17:02:28.347Z,11.90
2023-03-19T17:04:56.540Z,12.00
2023-03-19T17:07:24.764Z,12.00
2023-03-19T17:09:53.121Z,12.10
2023-03-19T17:12:21.330Z,12.00
2023-03-19T17:14:54.089Z,11.90
2023-03-19T17:17:23.739Z,11.90
2023-03-19T17:19:52.550Z,11.80
2023-03-19T17:22:20.874Z,11.80
2023-03-19T17:24:49.325Z,11.80
2023-03-19T17:27:17.448Z,11.80
2023-03-19T17:29:45.804Z,11.70
2023-03-19T17:32:19.086Z,11.70
2023-03-19T17:34:51.126Z,11.60
2023-03-19T17:37:19.267Z,11.60
2023-03-19T17:39:47.481Z,11.60
2023-03-19T17:42:20.259Z,11.60
2023-03-19T17:44:48.541Z,11.50
2023-03-19T17:47:18.749Z,11.30
2023-03-19T17:49:48.899Z,11.10
2023-03-19T17:52:18.599Z,11.10
2023-03-19T17:54:49.558Z,11.00
2023-03-19T17:57:19.319Z,10.90
2023-03-19T17:59:47.520Z,10.80
2023-03-19T18:02:28.652Z,10.80
2023-03-19T18:04:58.629Z,10.90
2023-03-19T18:07:28.809Z,11.00
2023-03-19T18:09:57.002Z,11.10
2023-03-19T18:12:25.137Z,11.20
2023-03-19T18:14:53.306Z,11.20
2023-03-19T18:17:21.518Z,11.20
2023-03-19T18:19:52.434Z,11.20
2023-03-19T18:22:22.345Z,11.20
2023-03-19T18:24:50.575Z,11.10
2023-03-19T18:27:19.023Z,11.20
2023-03-19T18:29:47.179Z,11.20
2023-03-19T18:32:18.575Z,11.30
2023-03-19T18:34:47.298Z,11.30
2023-03-19T18:37:18.140Z,11.30
2023-03-19T18:39:48.007Z,11.20
2023-03-19T18:42:16.747Z,11.30
2023-03-19T18:44:44.902Z,11.40
2023-03-19T18:47:15.572Z,10.80
2023-03-19T18:49:44.781Z,10.20
2023-03-19T18:52:19.636Z,10.00
2023-03-19T18:54:49.435Z,9.90
2023-03-19T18:57:18.218Z,9.80
2023-03-19T18:59:47.013Z,9.80
2023-03-19T19:02:29.649Z,9.80
2023-03-19T19:04:58.275Z,9.90
2023-03-19T19:07:26.611Z,9.80
2023-03-19T19:09:56.200Z,9.90
2023-03-19T19:12:26.112Z,10.00
2023-03-19T19:14:54.434Z,10.00
2023-03-19T19:17:24.648Z,10.10
2023-03-19T19:19:52.802Z,10.10
2023-03-19T19:22:21.232Z,9.90
2023-03-19T19:24:49.440Z,9.80
2023-03-19T19:27:21.527Z,9.80
2023-03-19T19:29:50.699Z,9.80
2023-03-19T19:32:22.740Z,9.70
2023-03-19T19:34:51.759Z,9.60
2023-03-19T19:37:21.231Z,9.50
2023-03-19T19:39:50.004Z,9.30
2023-03-19T19:42:22.442Z,9.30
2023-03-19T19:44:54.872Z,9.30
2023-03-19T19:47:23.243Z,9.20
2023-03-19T19:49:51.592Z,9.30
2023-03-19T19:52:20.784Z,9.30
2023-03-19T19:54:49.215Z,9.30
2023-03-19T19:57:21.968Z,9.30
2023-03-19T19:59:51.225Z,9.30
2023-03-19T20:02:24.172Z,9.30
2023-03-19T20:04:52.481Z,9.30
2023-03-19T20:07:20.697Z,9.30
2023-03-19T20:09:49.126Z,9.30
2023-03-19T20:12:22.790Z,9.20
2023-03-19T20:14:52.105Z,9.20
2023-03-19T20:17:21.990Z,9.20
2023-03-19T20:19:50.476Z,9.20
2023-03-19T20:22:18.681Z,9.20
2023-03-19T20:24:50.287Z,9.20
2023-03-19T20:27:22.702Z,9.30
2023-03-19T20:29:53.780Z,9.10
2023-03-19T20:32:29.656Z,8.90
2023-03-19T20:34:57.881Z,8.90
2023-03-19T20:37:26.084Z,8.80
2023-03-19T20:39:54.262Z,8.80
2023-03-19T20:42:24.249Z,8.80
2023-03-19T20:44:58.082Z,8.70
2023-03-19T20:47:26.726Z,8.60
2023-03-19T20:49:54.906Z,8.60
2023-03-19T20:52:23.009Z,8.40
2023-03-19T20:54:51.190Z,8.40
2023-03-19T20:57:24.139Z,8.40
2023-03-19T20:59:53.633Z,8.40
2023-03-19T21:02:24.496Z,8.30
2023-03-19T21:04:53.216Z,8.20
2023-03-19T21:07:29.362Z,8.20
2023-03-19T21:09:58.161Z,8.10
2023-03-19T21:12:31.622Z,8.10
2023-03-19T21:15:02.043Z,8.00
2023-03-19T21:17:30.558Z,7.90
2023-03-19T21:19:58.717Z,7.90
2023-03-19T21:22:29.836Z,7.90
2023-03-19T21:25:04.437Z,7.90
2023-03-19T21:27:35.084Z,7.90
2023-03-19T21:30:05.619Z,7.90
2023-03-19T21:32:33.894Z,7.80
2023-03-19T21:35:02.419Z,7.60
2023-03-19T21:37:30.612Z,7.50
2023-03-19T21:39:58.723Z,7.40
2023-03-19T21:42:27.492Z,7.60
2023-03-19T21:45:00.364Z,7.60
2023-03-19T21:47:29.981Z,7.80
2023-03-19T21:50:00.382Z,7.90
2023-03-19T21:52:28.769Z,7.80
2023-03-19T21:54:57.037Z,7.80
2023-03-19T21:57:25.914Z,7.70
2023-03-19T21:59:54.022Z,7.60
2023-03-19T22:02:42.444Z,7.70
2023-03-19T22:05:26.213Z,7.70
2023-03-19T22:07:55.069Z,7.50
2023-03-19T22:10:24.855Z,7.50
2023-03-19T22:12:53.002Z,7.60
2023-03-19T22:15:25.731Z,7.60
2023-03-19T22:17:55.262Z,7.60
2023-03-19T22:20:25.745Z,7.60
2023-03-19T22:22:54.055Z,7.50
2023-03-19T22:25:23.163Z,7.60
2023-03-19T22:27:52.632Z,7.60
2023-03-19T22:30:26.718Z,7.70
2023-03-19T22:32:58.266Z,7.60
2023-03-19T22:35:27.024Z,7.70
2023-03-19T22:37:55.358Z,7.80
2023-03-19T22:40:23.557Z,7.90
2023-03-19T22:42:51.817Z,7.90
2023-03-19T22:45:24.494Z,7.90
2023-03-19T22:47:53.151Z,7.90
2023-03-19T22:50:26.308Z,7.80
2023-03-19T22:52:54.847Z,7.90
2023-03-19T22:55:23.401Z,7.80
2023-03-19T22:57:51.743Z,7.80
2023-03-19T23:00:23.700Z,7.90
2023-03-19T23:02:57.477Z,7.80
2023-03-19T23:05:34.400Z,7.90
2023-03-19T23:08:05.993Z,7.90
2023-03-19T23:10:35.971Z,7.90
2023-03-19T23:13:04.166Z,7.90
2023-03-19T23:15:32.944Z,7.90
2023-03-19T23:18:02.300Z,8.00
2023-03-19T23:20:33.858Z,8.00
2023-03-19T23:23:02.469Z,8.10
2023-03-19T23:25:30.950Z,8.10
2023-03-19T23:28:02.539Z,8.10
2023-03-19T23:30:32.400Z,8.20
2023-03-19T23:33:03.296Z,8.20
2023-03-19T23:35:35.051Z,8.20
2023-03-19T23:38:04.172Z,8.20
2023-03-19T23:40:34.235Z,8.20
2023-03-19T23:43:03.397Z,8.30
2023-03-19T23:45:37.814Z,8.30
2023-03-19T23:48:07.838Z,8.30
2023-03-19T23:50:37.378Z,8.40
2023-03-19T23:53:05.526Z,8.30
2023-03-19T23:55:34.711Z,8.30
2023-03-19T23:58:05.855Z,8.30
